createdAt,value
2022-09-06T00:02:20.334Z,101543.97
2022-09-06T00:04:48.564Z,101537.38
2022-09-06T00:07:15.671Z,101544.28
2022-09-06T00:09:42.833Z,101542.97
2022-09-06T00:12:09.954Z,101544.59
2022-09-06T00:14:37.056Z,101536.22
2022-09-06T00:17:04.196Z,101533.91
2022-09-06T00:19:31.296Z,101539.44
2022-09-06T00:21:58.432Z,101542.94
2022-09-06T00:24:25.544Z,101547.09
2022-09-06T00:26:52.675Z,101541.03
2022-09-06T00:29:19.815Z,101543.25
2022-09-06T00:31:46.914Z,101534.44
2022-09-06T00:34:14.036Z,101529.31
2022-09-06T00:36:41.218Z,101531.25
2022-09-06T00:39:08.320Z,101542.09
2022-09-06T00:41:35.414Z,101537.97
2022-09-06T00:44:02.689Z,101534.59
2022-09-06T00:46:31.151Z,101532.34
2022-09-06T00:49:05.351Z,101529.75
2022-09-06T00:51:33.938Z,101530.97
2022-09-06T00:54:05.876Z,101536.28
2022-09-06T00:56:39.953Z,101532.34
2022-09-06T00:59:07.369Z,101536.38
2022-09-06T01:01:34.629Z,101536.47
2022-09-06T01:04:02.590Z,101538.63
2022-09-06T01:06:44.207Z,101542.31
2022-09-06T01:09:34.298Z,101542.13
2022-09-06T01:12:07.235Z,101539.03
2022-09-06T01:14:52.338Z,101531.47
2022-09-06T01:17:34.624Z,101524.69
2022-09-06T01:20:20.200Z,101522.22
2022-09-06T01:23:06.036Z,101521.06
2022-09-06T01:25:42.940Z,101525.41
2022-09-06T01:28:39.589Z,101528.66
2022-09-06T01:31:32.034Z,101525.28
2022-09-06T01:34:08.113Z,101528.97
2022-09-06T01:37:13.693Z,101524.25
2022-09-06T01:39:41.911Z,101518.03
2022-09-06T01:42:20.902Z,101522.41
2022-09-06T01:45:15.227Z,101520.25
2022-09-06T01:47:45.177Z,101518.38
2022-09-06T01:50:30.659Z,101517.94
2022-09-06T01:53:34.966Z,101510.72
2022-09-06T01:56:08.593Z,101509.53
2022-09-06T01:58:41.751Z,101513.28
2022-09-06T02:01:23.679Z,101509.34
2022-09-06T02:04:24.828Z,101501.50
2022-09-06T02:07:00.394Z,101509.22
2022-09-06T02:09:27.891Z,101512.72
2022-09-06T02:11:57.851Z,101513.16
2022-09-06T02:14:35.355Z,101512.81
2022-09-06T02:17:04.071Z,101502.50
2022-09-06T02:19:37.767Z,101510.78
2022-09-06T02:22:08.015Z,101500.09
2022-09-06T02:24:37.133Z,101508.56
2022-09-06T02:27:04.454Z,101509.53
2022-09-06T02:29:31.602Z,101509.22
2022-09-06T02:32:03.658Z,101497.75
2022-09-06T02:34:30.829Z,101506.44
2022-09-06T02:36:58.026Z,101505.47
2022-09-06T02:39:25.183Z,101491.47
2022-09-06T02:41:52.475Z,101492.97
2022-09-06T02:44:20.019Z,101497.63
2022-09-06T02:46:47.124Z,101499.53
2022-09-06T02:49:14.233Z,101507.06
2022-09-06T02:51:41.361Z,101498.97
2022-09-06T02:54:08.980Z,101508.44
2022-09-06T02:56:36.631Z,101517.78
2022-09-06T02:59:07.058Z,101516.00
2022-09-06T03:01:34.707Z,101510.56
2022-09-06T03:04:02.202Z,101513.41
2022-09-06T03:06:30.892Z,101512.13
2022-09-06T03:08:59.932Z,101514.78
2022-09-06T03:11:27.732Z,101503.63
2022-09-06T03:13:54.899Z,101503.25
2022-09-06T03:16:22.634Z,101504.94
2022-09-06T03:18:49.784Z,101502.97
2022-09-06T03:21:16.915Z,101495.09
2022-09-06T03:23:45.039Z,101496.31
2022-09-06T03:26:12.169Z,101496.88
2022-09-06T03:28:39.530Z,101499.94
2022-09-06T03:31:06.719Z,101498.06
2022-09-06T03:33:34.007Z,101495.41
2022-09-06T03:36:03.040Z,101495.28
2022-09-06T03:38:30.202Z,101492.75
2022-09-06T03:40:57.626Z,101485.63
2022-09-06T03:43:25.875Z,101487.22
2022-09-06T03:45:55.425Z,101485.13
2022-09-06T03:48:24.273Z,101487.09
2022-09-06T03:50:54.262Z,101491.28
2022-09-06T03:53:22.359Z,101489.56
2022-09-06T03:55:52.092Z,101486.19
2022-09-06T03:58:21.065Z,101489.13
2022-09-06T04:00:48.352Z,101491.69
2022-09-06T04:03:15.682Z,101494.50
2022-09-06T04:05:46.471Z,101493.44
2022-09-06T04:08:13.666Z,101490.41
2022-09-06T04:10:40.993Z,101495.09
2022-09-06T04:13:08.101Z,101489.78
2022-09-06T04:15:35.228Z,101481.63
2022-09-06T04:18:07.195Z,101485.22
2022-09-06T04:20:36.355Z,101488.63
2022-09-06T04:23:04.043Z,101484.19
2022-09-06T04:25:31.443Z,101486.06
2022-09-06T04:27:58.959Z,101481.38
2022-09-06T04:30:26.055Z,101482.75
2022-09-06T04:32:53.171Z,101485.16
2022-09-06T04:35:20.324Z,101481.78
2022-09-06T04:37:47.516Z,101473.72
2022-09-06T04:40:14.953Z,101479.22
2022-09-06T04:42:42.115Z,101480.34
2022-09-06T04:45:09.704Z,101478.47
2022-09-06T04:47:36.868Z,101478.09
2022-09-06T04:50:04.379Z,101464.72
2022-09-06T04:52:31.499Z,101470.03
2022-09-06T04:54:58.742Z,101473.56
2022-09-06T04:57:25.897Z,101462.56
2022-09-06T04:59:53.026Z,101464.09
2022-09-06T05:02:20.373Z,101455.69
2022-09-06T05:04:47.549Z,101464.22
2022-09-06T05:07:14.733Z,101461.78
2022-09-06T05:09:41.835Z,101465.47
2022-09-06T05:12:09.132Z,101458.84
2022-09-06T05:14:36.325Z,101456.09
2022-09-06T05:17:03.512Z,101451.75
2022-09-06T05:19:30.965Z,101452.88
2022-09-06T05:21:58.210Z,101449.56
2022-09-06T05:24:25.340Z,101450.53
2022-09-06T05:26:52.435Z,101452.22
2022-09-06T05:29:19.545Z,101455.41
2022-09-06T05:31:46.736Z,101452.38
2022-09-06T05:34:15.055Z,101448.25
2022-09-06T05:36:42.225Z,101457.03
2022-09-06T05:39:09.455Z,101447.00
2022-09-06T05:41:36.727Z,101449.78
2022-09-06T05:44:04.366Z,101446.53
2022-09-06T05:46:31.495Z,101452.13
2022-09-06T05:49:04.720Z,101452.91
2022-09-06T05:51:32.740Z,101464.91
2022-09-06T05:53:59.876Z,101461.53
2022-09-06T05:56:27.024Z,101459.72
2022-09-06T05:58:54.112Z,101466.22
2022-09-06T06:01:23.812Z,101469.91
2022-09-06T06:03:52.615Z,101462.50
2022-09-06T06:06:20.592Z,101461.34
2022-09-06T06:08:47.954Z,101463.03
2022-09-06T06:11:15.237Z,101457.84
2022-09-06T06:13:43.215Z,101458.50
2022-09-06T06:16:12.715Z,101460.75
2022-09-06T06:18:40.448Z,101444.81
2022-09-06T06:21:14.669Z,101430.81
2022-09-06T06:23:43.545Z,101435.91
2022-09-06T06:26:12.083Z,101436.56
2022-09-06T06:28:40.781Z,101432.09
2022-09-06T06:31:09.267Z,101434.75
2022-09-06T06:33:36.490Z,101429.44
2022-09-06T06:36:13.325Z,101441.13
2022-09-06T06:38:42.961Z,101440.13
2022-09-06T06:41:12.110Z,101436.44
2022-09-06T06:43:39.205Z,101438.34
2022-09-06T06:46:10.813Z,101436.72
2022-09-06T06:48:42.054Z,101438.34
2022-09-06T06:51:13.915Z,101438.88
2022-09-06T06:53:41.394Z,101435.59
2022-09-06T06:56:25.035Z,101434.31
2022-09-06T06:58:54.051Z,101440.91
2022-09-06T07:01:22.334Z,101438.25
2022-09-06T07:03:49.837Z,101439.63
2022-09-06T07:06:17.727Z,101435.16
2022-09-06T07:08:45.472Z,101433.88
2022-09-06T07:11:14.490Z,101425.38
2022-09-06T07:13:41.802Z,101422.41
2022-09-06T07:16:13.459Z,101429.00
2022-09-06T07:18:45.695Z,101421.56
2022-09-06T07:24:05.410Z,101427.16
2022-09-06T07:26:33.144Z,101433.97
2022-09-06T07:29:02.719Z,101445.66
2022-09-06T07:34:18.448Z,101441.69
2022-09-06T07:36:45.561Z,101440.41
2022-09-06T07:39:12.677Z,101434.75
2022-09-06T07:41:39.871Z,101436.53
2022-09-06T07:44:07.030Z,101447.16
2022-09-06T07:46:34.554Z,101455.03
2022-09-06T07:49:04.728Z,101449.91
2022-09-06T07:51:32.494Z,101446.44
2022-09-06T07:54:26.159Z,101437.97
2022-09-06T07:56:47.066Z,101432.81
2022-09-06T07:59:14.544Z,101424.41
2022-09-06T08:01:42.050Z,101426.84
2022-09-06T08:04:12.808Z,101432.41
2022-09-06T08:09:32.860Z,101419.13
2022-09-06T08:12:01.155Z,101419.78
2022-09-06T08:14:28.621Z,101428.03
2022-09-06T08:16:56.070Z,101429.88
2022-09-06T08:19:23.365Z,101427.09
2022-09-06T08:21:55.494Z,101432.53
2022-09-06T08:24:22.858Z,101427.25
2022-09-06T08:26:50.277Z,101427.38
2022-09-06T08:29:18.856Z,101426.50
2022-09-06T08:31:46.421Z,101427.50
2022-09-06T08:34:14.363Z,101427.97
2022-09-06T08:36:42.225Z,101426.28
2022-09-06T08:39:10.089Z,101436.47
2022-09-06T08:42:03.679Z,101418.75
2022-09-06T08:44:56.055Z,101425.31
2022-09-06T08:47:24.175Z,101426.03
2022-09-06T08:49:54.896Z,101426.78
2022-09-06T08:53:13.169Z,101423.47
2022-09-06T08:55:42.878Z,101421.06
2022-09-06T08:58:21.715Z,101423.38
2022-09-06T09:00:58.395Z,101413.31
2022-09-06T09:03:33.410Z,101416.56
2022-09-06T09:06:03.449Z,101414.50
2022-09-06T09:08:52.626Z,101410.81
2022-09-06T09:11:21.808Z,101404.25
2022-09-06T09:13:59.557Z,101400.97
2022-09-06T09:16:27.254Z,101407.97
2022-09-06T09:18:56.714Z,101401.66
2022-09-06T09:21:30.169Z,101402.19
2022-09-06T09:24:07.504Z,101398.53
2022-09-06T09:26:56.955Z,101397.50
2022-09-06T09:29:28.047Z,101400.41
2022-09-06T09:31:57.262Z,101395.38
2022-09-06T09:34:33.887Z,101382.88
2022-09-06T09:40:30.067Z,101378.91
2022-09-06T09:43:09.456Z,101378.13
2022-09-06T09:45:36.552Z,101376.06
2022-09-06T09:48:20.572Z,101368.75
2022-09-06T09:50:47.878Z,101359.88
2022-09-06T09:53:18.709Z,101356.38
2022-09-06T09:55:46.925Z,101349.63
2022-09-06T09:58:30.759Z,101345.13
2022-09-06T10:01:12.398Z,101345.88
2022-09-06T10:09:23.162Z,101354.19
2022-09-06T10:11:56.796Z,101342.72
2022-09-06T10:14:33.070Z,101334.13
2022-09-06T10:17:00.750Z,101339.94
2022-09-06T10:19:42.490Z,101339.13
2022-09-06T10:22:27.901Z,101336.03
2022-09-06T10:25:13.373Z,101340.28
2022-09-06T10:28:10.326Z,101336.19
2022-09-06T10:31:06.317Z,101334.78
2022-09-06T10:33:39.504Z,101341.81
2022-09-06T10:36:07.023Z,101330.41
2022-09-06T10:39:03.516Z,101332.38
2022-09-06T10:41:58.299Z,101322.81
2022-09-06T10:44:56.334Z,101327.03
2022-09-06T10:47:30.643Z,101324.34
2022-09-06T10:50:00.159Z,101320.00
2022-09-06T10:52:38.433Z,101311.53
2022-09-06T10:55:07.521Z,101312.81
2022-09-06T11:00:32.497Z,101309.84
2022-09-06T11:06:04.329Z,101299.28
2022-09-06T11:08:48.345Z,101304.06
2022-09-06T11:11:20.815Z,101301.25
2022-09-06T11:13:48.460Z,101302.81
2022-09-06T11:16:23.368Z,101295.19
2022-09-06T11:18:58.244Z,101301.09
2022-09-06T11:21:44.064Z,101307.31
2022-09-06T11:24:17.128Z,101303.88
2022-09-06T11:26:58.652Z,101300.78
2022-09-06T11:29:28.300Z,101288.69
2022-09-06T11:32:17.049Z,101295.72
2022-09-06T11:34:57.919Z,101296.28
2022-09-06T11:37:30.833Z,101286.44
2022-09-06T11:42:59.385Z,101287.56
2022-09-06T11:45:45.658Z,101282.38
2022-09-06T11:48:34.114Z,101279.09
2022-09-06T11:51:07.777Z,101283.75
2022-09-06T11:53:58.150Z,101281.94
2022-09-06T11:56:30.804Z,101276.41
2022-09-06T11:59:03.663Z,101275.41
2022-09-06T12:01:30.923Z,101276.84
2022-09-06T12:04:06.899Z,101269.66
2022-09-06T12:07:18.026Z,101275.97
2022-09-06T12:09:46.308Z,101270.47
2022-09-06T12:12:46.735Z,101273.28
2022-09-06T12:15:27.638Z,101280.91
2022-09-06T12:17:57.539Z,101274.69
2022-09-06T12:20:54.909Z,101267.22
2022-09-06T12:23:37.563Z,101268.63
2022-09-06T12:26:08.487Z,101268.63
2022-09-06T12:28:37.791Z,101262.66
2022-09-06T12:31:27.879Z,101263.44
2022-09-06T12:33:56.844Z,101261.47
2022-09-06T12:36:29.731Z,101257.53
2022-09-06T12:39:14.500Z,101257.06
2022-09-06T12:41:50.899Z,101247.59
2022-09-06T12:44:30.552Z,101253.50
2022-09-06T12:47:04.301Z,101246.53
2022-09-06T12:49:34.450Z,101244.69
2022-09-06T12:52:07.945Z,101243.53
2022-09-06T12:55:01.824Z,101241.84
2022-09-06T12:57:34.183Z,101235.84
2022-09-06T13:00:03.175Z,101232.59
2022-09-06T13:02:44.969Z,101231.25
2022-09-06T13:05:14.710Z,101217.94
2022-09-06T13:07:47.103Z,101221.69
2022-09-06T13:10:16.740Z,101219.09
2022-09-06T13:12:48.096Z,101217.16
2022-09-06T13:15:29.891Z,101217.16
2022-09-06T13:18:38.443Z,101206.34
2022-09-06T13:21:08.899Z,101208.72
2022-09-06T13:23:45.176Z,101202.97
2022-09-06T13:26:12.903Z,101207.75
2022-09-06T13:28:42.160Z,101205.13
2022-09-06T13:31:32.412Z,101202.41
2022-09-06T13:34:00.710Z,101195.97
2022-09-06T13:36:31.288Z,101202.03
2022-09-06T13:39:00.526Z,101199.06
2022-09-06T13:41:35.719Z,101199.44
2022-09-06T13:44:06.179Z,101192.31
2022-09-06T13:46:38.546Z,101190.81
2022-09-06T13:49:06.319Z,101192.75
2022-09-06T13:51:34.751Z,101190.84
2022-09-06T13:54:09.754Z,101198.31
2022-09-06T13:56:37.785Z,101192.28
2022-09-06T13:59:06.029Z,101183.88
2022-09-06T14:01:34.418Z,101189.81
2022-09-06T14:04:02.454Z,101198.75
2022-09-06T14:06:32.463Z,101195.88
2022-09-06T14:09:07.233Z,101200.72
2022-09-06T14:11:35.733Z,101188.91
2022-09-06T14:14:06.704Z,101193.16
2022-09-06T14:16:36.767Z,101182.13
2022-09-06T14:19:05.346Z,101182.03
2022-09-06T14:21:38.746Z,101189.94
2022-09-06T14:24:09.895Z,101198.06
2022-09-06T14:27:20.523Z,101192.66
2022-09-06T14:29:48.621Z,101194.56
2022-09-06T14:32:19.311Z,101199.75
2022-09-06T14:34:52.628Z,101182.47
2022-09-06T14:37:21.696Z,101195.13
2022-09-06T14:39:52.147Z,101185.09
2022-09-06T14:42:20.777Z,101187.00
2022-09-06T14:44:49.037Z,101187.56
2022-09-06T14:50:02.155Z,101177.47
2022-09-06T14:52:32.331Z,101184.22
2022-09-06T14:55:00.320Z,101178.31
2022-09-06T14:57:32.361Z,101177.28
2022-09-06T15:00:06.856Z,101180.94
2022-09-06T15:02:35.272Z,101178.38
2022-09-06T15:05:02.983Z,101182.34
2022-09-06T15:07:31.379Z,101176.41
2022-09-06T15:10:00.364Z,101162.44
2022-09-06T15:12:30.668Z,101163.28
2022-09-06T15:14:58.056Z,101163.78
2022-09-06T15:17:25.511Z,101157.13
2022-09-06T15:19:56.920Z,101163.47
2022-09-06T15:22:24.452Z,101169.91
2022-09-06T15:24:54.697Z,101156.94
2022-09-06T15:27:23.450Z,101156.44
2022-09-06T15:29:54.095Z,101151.88
2022-09-06T15:32:23.077Z,101151.22
2022-09-06T15:34:50.433Z,101149.84
2022-09-06T15:37:20.794Z,101141.81
2022-09-06T15:39:48.405Z,101139.34
2022-09-06T15:42:15.998Z,101138.56
2022-09-06T15:44:44.797Z,101139.19
2022-09-06T15:47:13.591Z,101139.19
2022-09-06T15:49:44.785Z,101134.78
2022-09-06T15:52:13.007Z,101144.63
2022-09-06T15:55:00.678Z,101143.84
2022-09-06T15:57:28.919Z,101142.16
2022-09-06T15:59:57.105Z,101136.66
2022-09-06T16:02:24.442Z,101133.47
2022-09-06T16:04:51.996Z,101132.63
2022-09-06T16:07:19.680Z,101134.66
2022-09-06T16:09:47.257Z,101122.50
2022-09-06T16:12:14.970Z,101113.44
2022-09-06T16:14:42.943Z,101115.44
2022-09-06T16:17:12.708Z,101109.34
2022-09-06T16:19:40.541Z,101120.47
2022-09-06T16:22:07.790Z,101119.94
2022-09-06T16:24:35.315Z,101121.88
2022-09-06T16:27:34.431Z,101116.59
2022-09-06T16:30:09.332Z,101113.41
2022-09-06T16:32:39.193Z,101115.41
2022-09-06T16:35:09.964Z,101118.44
2022-09-06T16:37:37.346Z,101119.38
2022-09-06T16:40:06.199Z,101114.84
2022-09-06T16:42:37.182Z,101121.88
2022-09-06T16:45:05.358Z,101120.09
2022-09-06T16:47:32.748Z,101118.94
2022-09-06T16:50:00.537Z,101118.81
2022-09-06T16:52:27.969Z,101115.91
2022-09-06T16:55:25.535Z,101115.06
2022-09-06T16:57:51.247Z,101110.94
2022-09-06T17:00:21.907Z,101114.94
2022-09-06T17:02:50.399Z,101106.84
2022-09-06T17:09:43.192Z,101101.06
2022-09-06T17:12:16.560Z,101104.88
2022-09-06T17:14:44.634Z,101108.09
2022-09-06T17:17:14.526Z,101104.59
2022-09-06T17:19:42.068Z,101099.69
2022-09-06T17:22:10.724Z,101107.75
2022-09-06T17:24:39.077Z,101104.69
2022-09-06T17:27:06.864Z,101100.03
2022-09-06T17:29:37.192Z,101102.25
2022-09-06T17:32:10.211Z,101100.13
2022-09-06T17:34:38.945Z,101110.31
2022-09-06T17:37:09.009Z,101100.44
2022-09-06T17:39:36.742Z,101095.34
2022-09-06T17:42:07.339Z,101094.38
2022-09-06T17:44:37.114Z,101091.38
2022-09-06T17:47:13.680Z,101092.69
2022-09-06T17:49:42.673Z,101093.13
2022-09-06T17:52:12.830Z,101097.63
2022-09-06T17:54:40.195Z,101094.44
2022-09-06T17:57:08.530Z,101099.09
2022-09-06T17:59:36.391Z,101106.06
2022-09-06T18:02:04.582Z,101108.25
2022-09-06T18:04:33.498Z,101123.38
2022-09-06T18:07:08.389Z,101119.72
2022-09-06T18:09:38.594Z,101120.81
2022-09-06T18:12:19.687Z,101119.00
2022-09-06T18:14:47.640Z,101128.31
2022-09-06T18:17:18.130Z,101124.75
2022-09-06T18:19:45.575Z,101124.06
2022-09-06T18:22:17.423Z,101120.44
2022-09-06T18:24:47.882Z,101125.13
2022-09-06T18:27:16.757Z,101116.53
2022-09-06T18:29:44.275Z,101125.41
2022-09-06T18:32:12.951Z,101129.63
2022-09-06T18:34:41.792Z,101129.13
2022-09-06T18:37:09.743Z,101123.88
2022-09-06T18:39:46.657Z,101128.13
2022-09-06T18:46:04.227Z,101122.75
2022-09-06T18:49:27.433Z,101122.75
2022-09-06T20:44:12.441Z,101076.63
2022-09-06T23:47:46.508Z,100970.28
